Time;durP1;ratioP1;P1;durP2;ratioP2;P2;SDS_P1;SDS_P2;PMS_P1;PMS_P2;Temp;Humidity;BMP_temperature;BMP_pressure;BME280_temperature;BME280_humidity;BME280_pressure;Samples;Min_cycle;Max_cycle;Signal;HPM_P1;HPM_P2
2022/08/03 00:02:23;;;;;;;;;0.80;0.80;35.80;99.90;;;;;;6238358;22;8819;-72
2022/08/03 00:04:53;;;;;;;;;1.60;1.60;35.70;99.90;;;;;;6235303;22;8821;-71
2022/08/03 00:07:23;;;;;;;;;0.00;0.00;35.70;99.90;;;;;;6268594;22;8809;-71
2022/08/03 00:09:58;;;;;;;;;0.80;0.80;35.60;99.90;;;;;;6238356;22;8803;-75
2022/08/03 00:12:42;;;;;;;;;0.80;0.80;35.60;99.90;;;;;;6240926;22;9212;-79
2022/08/03 00:15:13;;;;;;;;;0.60;0.20;35.60;99.90;;;;;;6249260;22;9460;-79
2022/08/03 00:17:50;;;;;;;;;0.00;0.00;35.70;99.90;;;;;;6274181;22;8787;-79
2022/08/03 00:20:25;;;;;;;;;0.00;0.00;35.60;99.90;;;;;;6219745;22;8811;-81
2022/08/03 00:22:58;;;;;;;;;0.00;0.00;35.60;99.90;;;;;;6244475;22;8811;-79
2022/08/03 00:25:27;;;;;;;;;0.20;0.20;35.60;99.90;;;;;;6272219;22;8803;-77
2022/08/03 00:27:58;;;;;;;;;0.60;0.60;35.60;99.90;;;;;;6237827;22;8850;-73
2022/08/03 00:30:28;;;;;;;;;0.60;0.60;35.60;99.90;;;;;;6242414;22;8802;-77
2022/08/03 00:32:59;;;;;;;;;0.60;0.60;35.50;99.90;;;;;;6266923;22;8795;-79
2022/08/03 00:35:31;;;;;;;;;0.80;0.00;35.50;99.90;;;;;;6269521;22;10043;-72
2022/08/03 00:38:20;;;;;;;;;1.60;0.80;35.40;99.90;;;;;;6266262;22;8822;-72
2022/08/03 00:40:50;;;;;;;;;2.80;0.80;35.40;99.90;;;;;;6235997;22;9483;-74
2022/08/03 00:43:28;;;;;;;;;0.80;0.80;35.30;99.90;;;;;;6268075;22;8902;-73
2022/08/03 00:46:07;;;;;;;;;0.00;0.00;35.20;99.90;;;;;;6236635;22;8834;-84
2022/08/03 00:48:40;;;;;;;;;0.00;0.00;35.20;99.90;;;;;;6267497;22;8832;-79
2022/08/03 00:51:09;;;;;;;;;0.00;0.00;35.10;99.90;;;;;;6212234;22;8795;-72
2022/08/03 00:53:39;;;;;;;;;0.40;0.40;35.10;99.90;;;;;;6237335;22;8849;-75
2022/08/03 00:56:12;;;;;;;;;1.80;0.60;35.00;99.90;;;;;;6212091;22;8815;-79
2022/08/03 00:58:46;;;;;;;;;0.40;0.40;35.00;99.90;;;;;;6237702;22;8810;-77
2022/08/03 01:01:19;;;;;;;;;1.00;0.80;35.00;99.90;;;;;;6266166;22;9567;-79
2022/08/03 01:03:49;;;;;;;;;1.00;1.00;34.80;99.90;;;;;;6265001;22;8818;-82
2022/08/03 01:06:46;;;;;;;;;0.80;0.80;34.80;99.90;;;;;;6242619;22;8771;-74
2022/08/03 01:09:36;;;;;;;;;0.00;0.00;34.80;99.90;;;;;;6243054;22;8846;-73
2022/08/03 01:12:20;;;;;;;;;0.80;0.80;34.70;99.90;;;;;;6191638;22;8837;-80
2022/08/03 01:15:00;;;;;;;;;1.00;1.00;34.70;99.90;;;;;;6235307;22;8834;-72
2022/08/03 01:17:43;;;;;;;;;0.80;0.80;34.70;99.90;;;;;;6268387;22;8799;-73
2022/08/03 01:20:17;;;;;;;;;1.00;1.00;34.60;99.90;;;;;;6265495;22;8810;-73
2022/08/03 01:23:04;;;;;;;;;0.00;0.00;34.60;99.90;;;;;;6240504;22;8795;-72
2022/08/03 01:26:00;;;;;;;;;0.00;0.00;34.60;99.90;;;;;;6268171;22;8779;-72
2022/08/03 01:28:52;;;;;;;;;1.00;1.00;34.50;99.90;;;;;;6241785;22;8838;-75
2022/08/03 01:31:35;;;;;;;;;1.00;1.00;34.50;99.90;;;;;;6239077;22;8822;-72
2022/08/03 01:34:33;;;;;;;;;0.40;0.40;34.50;99.90;;;;;;6264544;22;8790;-73
2022/08/03 01:37:06;;;;;;;;;0.80;0.60;34.40;99.90;;;;;;6265557;22;8810;-78
2022/08/03 01:39:39;;;;;;;;;2.00;0.00;34.30;99.90;;;;;;6265513;22;9534;-77
2022/08/03 01:42:11;;;;;;;;;1.00;1.00;34.30;99.90;;;;;;6264555;22;8806;-72
2022/08/03 01:44:47;;;;;;;;;0.80;0.00;34.30;99.90;;;;;;6237770;22;8869;-73
2022/08/03 01:47:21;;;;;;;;;2.00;1.00;34.20;99.90;;;;;;6264156;22;8810;-72
2022/08/03 01:49:52;;;;;;;;;0.80;0.40;34.10;99.90;;;;;;6263023;22;8945;-72
2022/08/03 01:52:25;;;;;;;;;1.00;1.00;34.10;99.90;;;;;;6240661;22;8783;-73
2022/08/03 01:54:57;;;;;;;;;1.80;1.00;34.00;99.90;;;;;;6262583;22;8799;-72
2022/08/03 01:57:30;;;;;;;;;0.80;0.80;34.00;99.90;;;;;;6262733;22;8825;-80
2022/08/03 02:00:02;;;;;;;;;1.00;1.00;34.00;99.90;;;;;;6235742;22;8829;-81
2022/08/03 02:02:39;;;;;;;;;1.00;1.00;33.90;99.90;;;;;;6248086;22;8787;-80
2022/08/03 02:05:14;;;;;;;;;0.20;0.20;33.90;99.90;;;;;;6241445;22;8791;-81
2022/08/03 02:07:47;;;;;;;;;1.20;1.20;33.90;99.90;;;;;;6267389;22;8807;-78
2022/08/03 02:10:21;;;;;;;;;2.00;2.00;33.80;99.90;;;;;;6267224;22;8779;-71
2022/08/03 02:13:07;;;;;;;;;1.60;1.00;33.80;99.90;;;;;;6262328;22;8816;-70
2022/08/03 02:15:38;;;;;;;;;2.00;2.00;33.70;99.90;;;;;;6238556;22;8810;-77
2022/08/03 02:18:11;;;;;;;;;1.00;1.00;33.70;99.90;;;;;;6267473;22;8787;-79
2022/08/03 02:20:46;;;;;;;;;1.00;1.00;33.70;99.90;;;;;;6208918;22;8823;-69
2022/08/03 02:23:17;;;;;;;;;1.40;1.40;33.70;99.90;;;;;;6237164;22;8815;-70
2022/08/03 02:26:01;;;;;;;;;2.00;1.40;33.60;99.90;;;;;;6210450;22;8830;-79
2022/08/03 02:28:45;;;;;;;;;1.60;1.60;33.50;99.90;;;;;;6240007;22;8787;-78
2022/08/03 02:31:19;;;;;;;;;1.00;1.00;33.40;99.90;;;;;;6261357;22;8966;-70
2022/08/03 02:33:53;;;;;;;;;1.40;1.40;33.40;99.90;;;;;;6233018;22;8803;-70
2022/08/03 02:36:30;;;;;;;;;1.00;1.00;33.30;99.90;;;;;;6267914;22;8811;-77
2022/08/03 02:39:02;;;;;;;;;2.00;2.00;33.20;99.90;;;;;;6267990;22;8826;-77
2022/08/03 02:41:37;;;;;;;;;1.00;1.00;33.10;99.90;;;;;;6263025;22;8815;-73
2022/08/03 02:44:11;;;;;;;;;2.00;2.00;33.10;99.90;;;;;;6231998;22;8779;-69
2022/08/03 02:46:49;;;;;;;;;1.40;1.40;33.00;99.90;;;;;;6266488;22;8869;-72
2022/08/03 02:49:21;;;;;;;;;2.60;1.00;32.90;99.90;;;;;;6231710;22;8818;-69
2022/08/03 02:52:12;;;;;;;;;0.80;0.80;32.80;99.90;;;;;;6269675;22;9539;-79
2022/08/03 02:54:49;;;;;;;;;0.80;0.80;32.80;99.90;;;;;;6268109;22;8811;-77
2022/08/03 02:57:25;;;;;;;;;1.20;1.20;32.70;99.90;;;;;;6269161;22;8786;-78
2022/08/03 02:59:57;;;;;;;;;0.60;0.60;32.70;99.90;;;;;;6237273;22;8898;-77
2022/08/03 03:02:28;;;;;;;;;1.80;1.00;32.70;99.90;;;;;;6270013;22;8818;-72
2022/08/03 03:05:25;;;;;;;;;1.00;1.00;32.50;99.90;;;;;;6237847;22;8834;-75
2022/08/03 03:08:18;;;;;;;;;2.20;1.00;32.40;99.90;;;;;;6249375;22;8807;-72
2022/08/03 03:11:01;;;;;;;;;2.00;2.00;32.30;99.90;;;;;;6265913;22;8838;-79
2022/08/03 03:13:33;;;;;;;;;2.60;1.40;32.20;99.90;;;;;;6270834;22;8933;-78
2022/08/03 03:16:05;;;;;;;;;1.60;1.40;32.10;99.90;;;;;;6242724;22;9768;-82
2022/08/03 03:18:37;;;;;;;;;2.00;2.00;32.00;99.90;;;;;;6246156;22;8795;-78
2022/08/03 03:21:10;;;;;;;;;1.00;1.00;32.10;99.90;;;;;;6267250;22;8795;-73
2022/08/03 03:23:42;;;;;;;;;2.80;2.00;31.90;99.90;;;;;;6239270;22;8803;-72
2022/08/03 03:26:19;;;;;;;;;1.00;1.00;31.80;99.90;;;;;;6265748;22;8798;-74
2022/08/03 03:28:48;;;;;;;;;1.40;1.40;31.80;99.90;;;;;;6265860;22;8805;-76
2022/08/03 03:31:19;;;;;;;;;3.00;1.40;31.70;99.90;;;;;;6237971;22;8855;-72
2022/08/03 03:33:50;;;;;;;;;2.80;2.80;31.50;99.90;;;;;;6236905;22;9182;-77
2022/08/03 03:36:24;;;;;;;;;4.00;2.00;31.40;99.90;;;;;;6235932;22;8807;-74
2022/08/03 03:38:54;;;;;;;;;1.20;1.20;31.40;99.90;;;;;;6213458;22;8799;-74
2022/08/03 03:41:28;;;;;;;;;1.40;1.40;31.40;99.90;;;;;;6239504;22;8815;-77
2022/08/03 03:44:01;;;;;;;;;1.60;1.60;31.40;99.90;;;;;;6241560;22;8807;-79
2022/08/03 03:46:32;;;;;;;;;1.60;1.60;31.40;99.90;;;;;;6263357;22;8815;-71
2022/08/03 03:49:01;;;;;;;;;3.60;2.60;31.10;99.90;;;;;;6259605;22;8818;-72
2022/08/03 03:51:37;;;;;;;;;2.00;2.00;31.20;99.90;;;;;;6238494;22;8814;-74
2022/08/03 03:54:09;;;;;;;;;3.00;2.00;31.10;99.90;;;;;;6234661;22;8833;-72
2022/08/03 03:56:40;;;;;;;;;3.00;1.00;31.00;99.90;;;;;;6241097;22;8783;-77
2022/08/03 03:59:18;;;;;;;;;0.00;0.00;30.90;99.90;;;;;;6248075;22;8810;-79
2022/08/03 04:01:48;;;;;;;;;2.00;0.60;30.90;99.90;;;;;;6239275;22;9811;-81
2022/08/03 04:13:11;;;;;;;;;1.00;1.00;30.70;99.90;;;;;;6265327;22;8779;-73
2022/08/03 04:15:47;;;;;;;;;1.00;1.00;30.50;99.90;;;;;;6237643;22;8811;-79
2022/08/03 04:18:19;;;;;;;;;3.00;2.00;30.40;99.90;;;;;;6212753;22;8811;-78
2022/08/03 04:20:53;;;;;;;;;2.00;2.00;30.30;99.90;;;;;;6237464;22;9495;-81
2022/08/03 04:23:25;;;;;;;;;2.00;2.00;30.20;99.90;;;;;;6264541;22;8842;-79
2022/08/03 04:25:58;;;;;;;;;1.80;1.80;30.30;99.90;;;;;;6266530;22;8807;-71
2022/08/03 04:28:30;;;;;;;;;2.00;2.00;30.20;99.90;;;;;;6268863;22;8807;-72
2022/08/03 04:31:02;;;;;;;;;2.60;1.20;30.20;99.90;;;;;;6265157;22;8803;-78
2022/08/03 04:33:36;;;;;;;;;2.00;1.00;30.10;99.90;;;;;;6236364;22;8791;-79
2022/08/03 04:36:09;;;;;;;;;0.20;0.20;30.20;99.90;;;;;;6263996;22;8795;-79
2022/08/03 04:39:01;;;;;;;;;2.40;1.00;30.10;99.90;;;;;;6265134;22;8845;-77
2022/08/03 04:41:33;;;;;;;;;1.40;0.40;30.10;99.90;;;;;;6236781;22;8807;-73
2022/08/03 04:44:25;;;;;;;;;1.00;1.00;29.90;99.90;;;;;;6267723;22;9527;-71
2022/08/03 04:46:57;;;;;;;;;1.00;1.00;29.90;99.90;;;;;;6236424;22;8845;-72
2022/08/03 04:49:27;;;;;;;;;1.00;1.00;29.90;99.90;;;;;;6267291;22;8799;-72
2022/08/03 04:52:01;;;;;;;;;1.00;1.00;29.80;99.90;;;;;;6266375;22;8787;-81
2022/08/03 04:54:42;;;;;;;;;1.00;1.00;29.80;99.90;;;;;;6237924;22;8803;-80
2022/08/03 04:57:19;;;;;;;;;1.00;1.00;29.70;99.90;;;;;;6268765;22;8818;-79
2022/08/03 04:59:55;;;;;;;;;0.00;0.00;29.60;99.90;;;;;;6265830;22;8802;-79
2022/08/03 05:02:32;;;;;;;;;2.20;1.80;29.60;99.90;;;;;;6268006;22;8806;-73
2022/08/03 05:05:02;;;;;;;;;0.60;0.60;29.50;99.90;;;;;;6265005;22;8803;-73
2022/08/03 05:07:32;;;;;;;;;1.00;1.00;29.50;99.90;;;;;;6241217;22;8833;-75
2022/08/03 05:10:07;;;;;;;;;1.00;1.00;29.50;99.90;;;;;;6265033;22;8799;-80
2022/08/03 05:12:45;;;;;;;;;1.00;1.00;29.40;99.90;;;;;;6240247;22;9484;-79
2022/08/03 05:15:15;;;;;;;;;2.00;2.00;29.40;99.90;;;;;;6236858;22;8803;-79
2022/08/03 05:17:44;;;;;;;;;1.00;1.00;29.30;99.90;;;;;;6238554;22;8841;-81
2022/08/03 05:20:15;;;;;;;;;2.00;2.00;29.30;99.90;;;;;;6267564;22;8795;-79
2022/08/03 05:22:48;;;;;;;;;1.60;1.00;29.30;99.90;;;;;;6235353;22;8841;-78
2022/08/03 05:25:21;;;;;;;;;1.20;1.20;29.30;99.90;;;;;;6267519;22;8803;-79
2022/08/03 05:27:55;;;;;;;;;1.40;1.00;29.20;99.90;;;;;;6235493;22;8807;-80
2022/08/03 05:30:35;;;;;;;;;1.20;1.20;29.10;99.90;;;;;;6264878;22;8801;-79
2022/08/03 05:33:05;;;;;;;;;1.80;1.80;29.20;99.90;;;;;;6237312;22;8818;-79
2022/08/03 05:35:38;;;;;;;;;0.40;0.40;29.10;99.90;;;;;;6239777;22;8802;-78
2022/08/03 05:38:32;;;;;;;;;1.20;1.20;29.10;99.90;;;;;;6267635;22;8798;-78
2022/08/03 05:41:07;;;;;;;;;2.60;2.00;29.00;99.90;;;;;;6264181;22;8818;-80
2022/08/03 05:43:53;;;;;;;;;2.20;1.00;29.00;99.90;;;;;;6242133;22;8787;-80
2022/08/03 05:46:23;;;;;;;;;1.40;1.00;29.00;99.90;;;;;;6236212;22;9231;-79
2022/08/03 05:48:52;;;;;;;;;3.00;2.00;28.80;99.90;;;;;;6264595;22;8825;-80
2022/08/03 05:51:22;;;;;;;;;0.40;0.40;28.80;99.90;;;;;;6268811;22;8806;-78
2022/08/03 05:53:54;;;;;;;;;1.60;1.60;28.70;99.90;;;;;;6267278;22;8791;-80
2022/08/03 05:56:24;;;;;;;;;2.40;1.80;28.80;99.90;;;;;;6269746;22;8797;-73
2022/08/03 05:58:54;;;;;;;;;0.60;0.60;28.70;99.90;;;;;;6235406;22;8794;-72
2022/08/03 06:01:27;;;;;;;;;3.00;1.80;28.60;99.90;;;;;;6267666;22;8779;-74
2022/08/03 06:03:57;;;;;;;;;2.00;2.00;28.50;99.90;;;;;;6240060;22;8814;-72
2022/08/03 06:06:31;;;;;;;;;3.20;2.20;28.60;99.90;;;;;;6240428;22;8814;-80
2022/08/03 06:09:00;;;;;;;;;1.20;1.20;28.50;99.90;;;;;;6238170;22;8795;-80
2022/08/03 06:11:32;;;;;;;;;1.80;1.00;28.50;99.90;;;;;;6266283;22;9739;-73
2022/08/03 06:14:03;;;;;;;;;2.40;2.00;28.40;99.90;;;;;;6268187;22;9519;-72
2022/08/03 06:16:35;;;;;;;;;0.00;0.00;28.40;99.90;;;;;;6237491;22;8810;-73
2022/08/03 06:19:07;;;;;;;;;2.00;2.00;28.50;99.90;;;;;;6266221;22;9555;-73
2022/08/03 06:21:38;;;;;;;;;2.00;2.00;28.30;99.90;;;;;;6263419;22;8928;-77
2022/08/03 06:24:08;;;;;;;;;2.00;1.00;28.30;99.90;;;;;;6240414;22;9518;-79
2022/08/03 06:26:39;;;;;;;;;2.00;2.00;28.30;99.90;;;;;;6269079;22;8787;-73
2022/08/03 06:29:12;;;;;;;;;0.00;0.00;28.30;99.90;;;;;;6271466;22;8787;-72
2022/08/03 06:31:42;;;;;;;;;2.00;2.00;28.40;99.90;;;;;;6267895;22;8790;-79
2022/08/03 06:34:12;;;;;;;;;2.00;2.00;28.30;99.90;;;;;;6271897;22;8833;-79
2022/08/03 06:37:02;;;;;;;;;1.20;1.20;28.10;99.90;;;;;;6268212;22;8921;-73
2022/08/03 06:39:32;;;;;;;;;0.00;0.00;28.10;99.90;;;;;;6265992;22;8794;-74
2022/08/03 06:42:03;;;;;;;;;3.60;2.00;28.10;99.90;;;;;;6240925;22;8817;-82
2022/08/03 06:44:34;;;;;;;;;1.20;1.20;28.10;99.90;;;;;;6268817;22;8822;-80
2022/08/03 06:47:03;;;;;;;;;1.60;1.60;28.00;99.90;;;;;;6265405;22;8799;-72
2022/08/03 06:49:34;;;;;;;;;2.80;2.20;28.00;99.90;;;;;;6270536;22;8787;-73
2022/08/03 06:52:08;;;;;;;;;2.80;2.80;28.10;99.90;;;;;;6239038;22;8807;-74
2022/08/03 06:54:40;;;;;;;;;2.00;2.00;27.90;99.90;;;;;;6243000;22;8782;-72
2022/08/03 06:57:10;;;;;;;;;3.00;3.00;28.00;99.90;;;;;;6266227;22;8814;-81
2022/08/03 06:59:40;;;;;;;;;2.00;2.00;27.90;99.90;;;;;;6238929;22;8823;-77
2022/08/03 07:02:31;;;;;;;;;2.20;2.20;27.90;99.90;;;;;;6269848;22;8799;-74
2022/08/03 07:05:02;;;;;;;;;3.60;3.00;27.90;99.90;;;;;;6265672;22;8841;-72
2022/08/03 07:07:33;;;;;;;;;2.00;2.00;27.90;99.90;;;;;;6238063;22;8814;-74
2022/08/03 07:10:05;;;;;;;;;2.80;2.80;27.80;99.90;;;;;;6264910;22;9491;-74
2022/08/03 07:12:35;;;;;;;;;2.60;2.60;27.80;99.90;;;;;;6266591;22;8817;-73
2022/08/03 07:15:26;;;;;;;;;2.20;2.20;27.80;99.90;;;;;;6245088;22;8842;-79
2022/08/03 07:18:16;;;;;;;;;4.80;1.80;27.70;99.90;;;;;;6270602;22;8814;-79
2022/08/03 07:20:58;;;;;;;;;4.60;4.60;27.60;99.90;;;;;;6241199;22;8918;-78
2022/08/03 07:23:29;;;;;;;;;1.20;1.20;27.60;99.90;;;;;;6238619;22;8787;-79
2022/08/03 07:25:59;;;;;;;;;3.60;3.60;27.60;99.90;;;;;;6237088;22;8831;-72
2022/08/03 07:28:31;;;;;;;;;2.20;2.20;27.60;99.90;;;;;;6238397;22;8795;-74
2022/08/03 07:31:00;;;;;;;;;2.00;2.00;27.60;99.90;;;;;;6238079;22;8787;-74
2022/08/03 07:33:31;;;;;;;;;2.00;2.00;27.60;99.90;;;;;;6268381;22;8866;-75
2022/08/03 07:36:04;;;;;;;;;2.00;2.00;27.40;99.90;;;;;;6239167;22;8803;-73
2022/08/03 07:38:35;;;;;;;;;2.60;2.60;27.40;99.90;;;;;;6268593;22;8795;-74
2022/08/03 07:41:07;;;;;;;;;1.80;1.80;27.40;99.90;;;;;;6239155;22;8783;-79
2022/08/03 07:43:37;;;;;;;;;3.20;3.20;27.40;99.90;;;;;;6270020;22;8783;-79
2022/08/03 07:46:08;;;;;;;;;3.00;3.00;27.30;99.90;;;;;;6265323;22;8807;-74
2022/08/03 07:48:38;;;;;;;;;3.00;3.00;27.20;99.90;;;;;;6269515;22;8814;-74
2022/08/03 07:51:08;;;;;;;;;0.00;0.00;27.20;99.90;;;;;;6237385;22;8791;-79
2022/08/03 07:53:38;;;;;;;;;2.00;2.00;27.20;99.90;;;;;;6268211;22;8811;-79
2022/08/03 07:56:16;;;;;;;;;3.00;3.00;27.20;99.90;;;;;;6265171;22;8806;-72
2022/08/03 07:58:48;;;;;;;;;2.60;2.60;27.10;99.90;;;;;;6266537;22;8790;-73
2022/08/03 08:01:24;;;;;;;;;2.40;1.80;27.30;99.90;;;;;;6266403;22;8806;-79
2022/08/03 08:03:56;;;;;;;;;3.20;2.40;27.20;99.90;;;;;;6268471;22;8795;-81
2022/08/03 08:06:26;;;;;;;;;3.00;3.00;27.20;99.90;;;;;;6268610;22;8779;-79
2022/08/03 08:09:00;;;;;;;;;5.00;2.40;27.30;99.90;;;;;;6265349;22;8822;-79
2022/08/03 08:11:30;;;;;;;;;3.60;2.40;27.30;99.90;;;;;;6213961;22;8826;-79
2022/08/03 08:14:06;;;;;;;;;3.40;3.40;27.00;99.90;;;;;;6264834;22;8811;-78
2022/08/03 08:16:38;;;;;;;;;3.60;3.60;27.00;99.90;;;;;;6264136;22;8783;-72
2022/08/03 08:19:13;;;;;;;;;3.00;3.00;27.00;99.90;;;;;;6238537;22;9507;-72
2022/08/03 08:21:44;;;;;;;;;3.00;3.00;27.00;99.90;;;;;;6237107;22;8831;-72
2022/08/03 08:24:32;;;;;;;;;2.60;2.60;26.90;99.90;;;;;;6269843;22;8787;-73
2022/08/03 08:27:07;;;;;;;;;2.20;2.20;26.90;99.90;;;;;;6265294;22;8795;-73
2022/08/03 08:29:38;;;;;;;;;3.00;3.00;26.90;99.90;;;;;;6268715;22;8857;-72
2022/08/03 08:32:22;;;;;;;;;2.50;2.50;27.00;99.90;;;;;;6265650;22;8803;-81
2022/08/03 08:34:53;;;;;;;;;3.00;3.00;26.80;99.90;;;;;;6239825;22;8854;-79
2022/08/03 08:37:24;;;;;;;;;3.00;3.00;27.00;99.90;;;;;;6268641;22;8791;-80
2022/08/03 08:39:58;;;;;;;;;3.00;3.00;27.00;99.90;;;;;;6267410;22;9511;-79
2022/08/03 08:42:30;;;;;;;;;3.75;3.75;27.00;99.90;;;;;;6211627;22;8806;-74
2022/08/03 08:45:03;;;;;;;;;3.25;3.25;26.90;99.90;;;;;;6263104;22;8795;-75
2022/08/03 08:47:42;;;;;;;;;2.50;2.25;26.90;99.90;;;;;;6269304;22;8961;-80
2022/08/03 08:50:23;;;;;;;;;3.25;2.00;27.00;99.90;;;;;;6214072;22;8803;-74
2022/08/03 08:52:58;;;;;;;;;2.00;2.00;26.80;99.90;;;;;;6240234;22;8813;-73
2022/08/03 08:55:33;;;;;;;;;5.00;3.50;26.80;99.90;;;;;;6238362;22;8835;-74
2022/08/03 08:58:26;;;;;;;;;3.50;3.00;26.80;99.90;;;;;;6268970;22;8783;-75
2022/08/03 09:01:01;;;;;;;;;2.00;2.00;26.80;99.90;;;;;;6266019;22;8795;-74
2022/08/03 09:03:37;;;;;;;;;4.00;3.00;26.80;99.90;;;;;;6269080;22;8806;-74
2022/08/03 09:06:07;;;;;;;;;3.00;3.00;26.80;99.90;;;;;;6238539;22;8844;-75
2022/08/03 09:08:37;;;;;;;;;4.00;4.00;26.80;99.90;;;;;;6267965;22;8779;-75
2022/08/03 09:11:08;;;;;;;;;4.75;4.75;26.70;99.90;;;;;;6265505;22;8811;-75
2022/08/03 09:13:40;;;;;;;;;2.75;2.25;26.60;99.90;;;;;;6265914;22;8795;-73
2022/08/03 09:16:16;;;;;;;;;5.00;3.75;26.60;99.90;;;;;;6237840;22;8807;-78
2022/08/03 09:18:49;;;;;;;;;2.75;2.75;26.60;99.90;;;;;;6267143;22;8791;-79
2022/08/03 09:21:28;;;;;;;;;2.75;2.75;26.60;99.90;;;;;;6267350;22;8791;-79
2022/08/03 09:24:10;;;;;;;;;3.00;3.00;26.70;99.90;;;;;;6236544;22;8811;-79
2022/08/03 09:27:00;;;;;;;;;4.25;3.00;26.50;99.90;;;;;;6238021;22;8811;-80
2022/08/03 09:29:34;;;;;;;;;1.00;1.00;26.60;99.90;;;;;;6267629;22;8815;-80
2022/08/03 09:32:05;;;;;;;;;2.20;2.20;26.50;99.90;;;;;;6263845;22;8799;-72
2022/08/03 09:34:38;;;;;;;;;2.25;1.75;26.50;99.90;;;;;;6263551;22;8799;-74
2022/08/03 09:37:16;;;;;;;;;2.20;2.20;26.60;99.90;;;;;;6213256;22;8806;-79
2022/08/03 09:40:07;;;;;;;;;2.25;2.25;26.50;99.90;;;;;;6266083;22;8854;-76
2022/08/03 09:42:54;;;;;;;;;2.60;2.60;26.40;99.90;;;;;;6267140;22;8815;-74
2022/08/03 09:45:26;;;;;;;;;3.00;3.00;26.50;99.90;;;;;;6239023;22;8795;-74
2022/08/03 09:47:59;;;;;;;;;2.25;2.25;26.40;99.90;;;;;;6237024;22;8861;-74
2022/08/03 09:50:51;;;;;;;;;1.00;1.00;26.40;99.90;;;;;;6242905;22;9557;-80
2022/08/03 09:53:51;;;;;;;;;2.00;2.00;26.40;99.90;;;;;;6238857;22;8841;-79
2022/08/03 09:56:46;;;;;;;;;3.25;3.25;26.40;99.90;;;;;;6244427;22;8807;-75
2022/08/03 09:59:27;;;;;;;;;3.25;3.25;26.30;99.90;;;;;;6245006;22;8807;-74
2022/08/03 10:01:59;;;;;;;;;4.25;4.00;26.40;99.90;;;;;;6239913;22;9499;-75
2022/08/03 10:04:29;;;;;;;;;5.25;4.50;26.30;99.90;;;;;;6268034;22;8817;-72
2022/08/03 10:07:11;;;;;;;;;2.00;2.00;26.30;99.90;;;;;;6238362;22;8827;-80
2022/08/03 10:09:56;;;;;;;;;1.75;1.75;26.30;99.90;;;;;;6268147;22;8795;-81
2022/08/03 10:12:47;;;;;;;;;3.75;3.75;26.40;99.90;;;;;;6245425;22;8791;-72
2022/08/03 10:15:18;;;;;;;;;4.00;3.75;26.30;99.90;;;;;;6240396;22;8807;-73
2022/08/03 10:18:10;;;;;;;;;3.00;3.00;26.40;99.90;;;;;;6268870;22;8779;-74
2022/08/03 10:20:52;;;;;;;;;4.25;3.00;26.40;99.90;;;;;;6266043;22;8830;-79
2022/08/03 10:23:26;;;;;;;;;2.50;2.50;26.30;99.90;;;;;;6266762;22;8767;-80
2022/08/03 10:26:04;;;;;;;;;3.00;3.00;26.40;99.90;;;;;;6267101;22;8787;-74
2022/08/03 10:28:41;;;;;;;;;2.00;2.00;26.30;99.90;;;;;;6239171;22;8807;-74
2022/08/03 10:31:18;;;;;;;;;2.75;2.75;26.40;99.90;;;;;;6239547;22;8837;-80
2022/08/03 10:33:51;;;;;;;;;3.50;3.50;26.30;99.90;;;;;;6268978;22;8786;-82
2022/08/03 10:36:26;;;;;;;;;3.25;2.75;26.20;99.90;;;;;;6270305;22;8794;-74
2022/08/03 10:39:01;;;;;;;;;2.75;2.75;26.30;99.90;;;;;;6242597;22;8803;-73
2022/08/03 10:41:46;;;;;;;;;3.25;3.25;26.40;99.90;;;;;;6265059;22;8771;-79
2022/08/03 10:44:23;;;;;;;;;3.75;2.50;26.40;99.90;;;;;;6243369;22;8811;-78
2022/08/03 10:46:54;;;;;;;;;4.00;3.00;26.20;99.90;;;;;;6239939;22;8817;-79
2022/08/03 10:49:29;;;;;;;;;3.75;3.75;26.20;99.90;;;;;;6270778;22;8802;-79
2022/08/03 10:52:04;;;;;;;;;5.00;5.00;26.20;99.90;;;;;;6266869;22;8865;-79
2022/08/03 10:57:52;;;;;;;;;4.00;4.00;26.30;99.90;;;;;;6265999;22;8798;-74
2022/08/03 11:00:29;;;;;;;;;4.50;4.00;26.20;99.90;;;;;;6269120;22;8803;-74
2022/08/03 11:03:13;;;;;;;;;2.00;2.00;26.20;99.90;;;;;;6267090;22;8833;-75
2022/08/03 11:05:51;;;;;;;;;3.25;3.25;26.20;99.90;;;;;;6267861;22;9534;-72
2022/08/03 11:08:22;;;;;;;;;3.00;3.00;26.20;99.90;;;;;;6269423;22;9161;-75
2022/08/03 11:10:57;;;;;;;;;5.00;5.00;26.20;99.90;;;;;;6266594;22;8791;-79
2022/08/03 11:13:30;;;;;;;;;2.25;2.25;26.10;99.90;;;;;;6242836;22;8830;-78
2022/08/03 11:16:18;;;;;;;;;3.00;3.00;26.10;99.90;;;;;;6239857;22;8823;-78
2022/08/03 11:19:26;;;;;;;;;2.25;2.25;26.20;99.90;;;;;;6266032;22;8857;-80
2022/08/03 11:21:58;;;;;;;;;4.00;4.00;26.20;99.90;;;;;;6243286;22;9589;-79
2022/08/03 11:24:45;;;;;;;;;4.50;3.00;26.20;99.90;;;;;;6270457;22;8795;-81
2022/08/03 11:27:15;;;;;;;;;4.75;4.00;26.20;99.90;;;;;;6265988;22;8795;-73
2022/08/03 11:30:08;;;;;;;;;4.75;4.75;26.10;99.90;;;;;;6268007;22;8795;-75
2022/08/03 11:32:46;;;;;;;;;6.50;2.50;26.10;99.90;;;;;;6238157;22;8822;-79
2022/08/03 11:35:25;;;;;;;;;4.50;4.50;26.20;99.90;;;;;;6214186;22;8841;-74
2022/08/03 11:38:00;;;;;;;;;3.50;3.25;26.20;99.90;;;;;;6237675;22;8815;-74
2022/08/03 11:40:48;;;;;;;;;2.50;2.50;26.10;99.90;;;;;;6269226;22;8795;-79
2022/08/03 11:43:30;;;;;;;;;4.00;4.00;26.10;99.90;;;;;;6238744;22;9607;-80
2022/08/03 11:46:11;;;;;;;;;7.75;3.75;26.20;99.90;;;;;;6265604;22;8795;-75
2022/08/03 11:49:06;;;;;;;;;3.00;3.00;26.20;99.90;;;;;;6238618;22;8811;-73
2022/08/03 11:51:40;;;;;;;;;1.50;1.50;26.30;99.90;;;;;;6266009;22;9080;-81
2022/08/03 11:54:13;;;;;;;;;4.00;4.00;26.20;99.90;;;;;;6271656;22;8833;-79
2022/08/03 11:56:49;;;;;;;;;5.00;5.00;26.20;99.90;;;;;;6271142;22;8811;-80
2022/08/03 11:59:36;;;;;;;;;4.00;4.00;26.20;99.90;;;;;;6221924;22;8807;-83
2022/08/03 12:02:16;;;;;;;;;4.75;4.00;26.30;99.90;;;;;;6270288;22;8821;-79
2022/08/03 12:04:57;;;;;;;;;6.25;6.25;26.20;99.90;;;;;;6270396;22;8801;-79
2022/08/03 12:07:29;;;;;;;;;5.00;3.75;26.20;99.90;;;;;;6239331;22;8823;-81
2022/08/03 12:10:22;;;;;;;;;3.75;2.00;26.10;99.90;;;;;;6267840;22;8822;-75
2022/08/03 12:12:58;;;;;;;;;3.00;3.00;26.20;99.90;;;;;;6267379;22;9172;-74
2022/08/03 12:15:30;;;;;;;;;5.00;4.00;26.30;99.90;;;;;;6268667;22;8783;-74
2022/08/03 12:18:02;;;;;;;;;4.25;4.00;26.10;99.90;;;;;;6239068;22;8807;-76
2022/08/03 12:20:35;;;;;;;;;4.00;4.00;26.20;99.90;;;;;;6237601;22;8802;-74
2022/08/03 12:23:09;;;;;;;;;2.25;2.25;26.20;99.90;;;;;;6266389;22;8799;-74
2022/08/03 12:25:41;;;;;;;;;4.50;3.00;26.30;99.90;;;;;;6265878;22;8813;-80
2022/08/03 12:28:22;;;;;;;;;3.25;3.25;26.30;99.90;;;;;;6265024;22;8799;-79
2022/08/03 12:31:08;;;;;;;;;3.00;3.00;26.30;99.90;;;;;;6241825;22;8814;-79
2022/08/03 12:34:07;;;;;;;;;3.50;3.50;26.30;99.90;;;;;;6266168;22;8918;-80
2022/08/03 12:36:49;;;;;;;;;4.00;3.00;26.40;99.90;;;;;;6266405;22;8833;-79
2022/08/03 12:39:26;;;;;;;;;3.75;3.75;26.40;99.90;;;;;;6228569;22;8838;-82
2022/08/03 12:41:59;;;;;;;;;3.25;3.25;26.30;99.90;;;;;;6239008;22;8787;-74
2022/08/03 12:44:31;;;;;;;;;3.00;3.00;26.30;99.90;;;;;;6210769;22;8823;-81
2022/08/03 12:47:02;;;;;;;;;2.75;2.75;26.40;99.90;;;;;;6266727;22;8813;-73
2022/08/03 12:49:50;;;;;;;;;3.00;2.50;26.40;99.90;;;;;;6236265;22;8795;-74
2022/08/03 12:52:22;;;;;;;;;1.75;1.75;26.50;99.90;;;;;;6269340;22;8937;-81
2022/08/03 12:54:59;;;;;;;;;4.00;4.00;26.40;99.90;;;;;;6237339;22;8810;-80
2022/08/03 12:57:41;;;;;;;;;3.00;3.00;26.40;99.90;;;;;;6242777;22;8786;-78
2022/08/03 13:00:14;;;;;;;;;3.25;3.25;26.50;99.90;;;;;;6237294;22;8803;-80
2022/08/03 13:03:06;;;;;;;;;4.50;4.50;26.60;99.90;;;;;;6264608;22;8791;-79
2022/08/03 13:05:56;;;;;;;;;3.00;3.00;26.60;99.90;;;;;;6266156;22;8783;-74
2022/08/03 13:08:27;;;;;;;;;3.75;3.25;26.60;99.90;;;;;;6240558;22;8787;-75
2022/08/03 13:10:57;;;;;;;;;3.75;3.75;26.60;99.90;;;;;;6264892;22;8795;-74
2022/08/03 13:13:40;;;;;;;;;3.25;3.00;26.60;99.90;;;;;;6268719;22;9510;-74
2022/08/03 13:16:12;;;;;;;;;4.25;3.75;26.60;99.90;;;;;;6267870;22;8799;-74
2022/08/03 13:18:53;;;;;;;;;4.75;4.75;26.70;99.90;;;;;;6241821;22;8830;-74
2022/08/03 13:21:25;;;;;;;;;4.00;4.00;26.70;99.90;;;;;;6266345;22;8799;-80
2022/08/03 13:23:56;;;;;;;;;1.00;1.00;26.80;99.90;;;;;;6265238;22;8806;-79
2022/08/03 13:26:29;;;;;;;;;3.50;3.50;26.70;99.90;;;;;;6237670;22;8799;-73
2022/08/03 13:29:00;;;;;;;;;4.25;2.50;26.80;99.90;;;;;;6265489;22;8799;-73
2022/08/03 13:34:28;;;;;;;;;4.25;3.75;26.90;99.90;;;;;;6234278;22;8811;-79
2022/08/03 13:36:58;;;;;;;;;5.00;5.00;27.00;99.90;;;;;;6265321;22;8802;-80
2022/08/03 13:39:44;;;;;;;;;1.25;1.25;27.00;99.90;;;;;;6265597;22;8800;-79
2022/08/03 13:42:29;;;;;;;;;6.00;5.00;27.10;99.90;;;;;;6244624;22;8783;-80
2022/08/03 13:44:59;;;;;;;;;5.25;4.00;27.10;99.90;;;;;;6266128;22;8775;-79
2022/08/03 13:47:30;;;;;;;;;3.00;3.00;27.20;99.90;;;;;;6239567;22;8783;-74
2022/08/03 13:50:02;;;;;;;;;4.00;4.00;27.20;99.90;;;;;;6263709;22;8787;-78
2022/08/03 13:52:34;;;;;;;;;4.80;3.40;27.30;99.90;;;;;;6268414;22;8776;-80
2022/08/03 13:55:06;;;;;;;;;5.00;5.00;27.50;99.90;;;;;;6237096;22;8810;-80
2022/08/03 13:57:37;;;;;;;;;3.25;3.25;27.50;99.90;;;;;;6237486;22;8845;-81
2022/08/03 14:00:27;;;;;;;;;3.00;3.00;27.40;99.90;;;;;;6237950;22;9575;-74